Johns Island, SC

4:51 PM EST on January 22, 2017 (GMT -0500)
barbarywoods | | Change Station
Active Advisory: Tornado Watch, Gale Warning

Elev 43 ft 32.74 °N, 80.05 °W | Updated 49 seconds ago

Overcast
Overcast
60.5 °F
Feels Like 60.5 °F
N
0.0
Wind Variable Wind from WNW

Today
High -- | Low -- °F
--% Chance of Precip.
Yesterday
High -- | Low -- °F
Precip. -- in
Pressure 29.48 in
Visibility 4.0 miles
Clouds Few 200 ft
Mostly Cloudy 7500 ft
Overcast 9500 ft
Dew Point 58 °F
Humidity 93%
Rainfall 2.13 in
Snow Depth Not available.
7:20 AM 5:43 PM
Waning Crescent, 23% visible
METAR KJZI 222135Z AUTO 13006KT 4SM BR FEW002 BKN075 OVC095 16/16 A2948 RMK AO2
Pressure 29.48 in
Visibility 4.0 miles
Clouds Few 200 ft
Mostly Cloudy 7500 ft
Overcast 9500 ft
Dew Point 58 °F
Humidity 93%
Rainfall 2.13 in
Snow Depth Not available.
7:20 AM 5:43 PM
Waning Crescent, 23% visible
METAR KJZI 222135Z AUTO 13006KT 4SM BR FEW002 BKN075 OVC095 16/16 A2948 RMK AO2

Get Your Daily Forecast Email!

Thanks for signing up!

Be on the lookout for a verification email in your inbox.

You'll start receiving the daily forecast at 8 AM.

×

10-Day Weather Forecast

Almanac

Astronomy

Jan. 22, 2017 Rise Set
Actual Time
Civil Twilight
Nautical Twilight
Astronomical Twilight
Moon
Length of Visible Light
Length of Day
Tomorrow will be .
, % of the Moon is Illuminated

Today's Extremes

State Highs State Lows

Community

WunderPhotos

Upload Photos

1,962,540 photos uploaded!

WunderBlog® & News

Nearby

Air Quality

  Air Quality AQ Index Pollutant
Not available.

Snow Depth

Station Depth Elevation

Earthquake Activity

City Distance Mag. Time & Date
Minimum magnitude displayed is 2.5.

Coastal Water Temperatures

Place Temperature

Stations

Nearby Weather Stations

Station Location Temp. Windchill Dew Point Humidity Wind Precip. Elev Updated Type
                   

Watches & Warnings

Tornado Watch
Issued: 4:43 PM EST Jan. 22, 2017 – National Weather Service

Tornado Watch 22 remains in effect until 1000 PM EST for the
following locations

SC
. South Carolina counties included are

Aiken Allendale Bamberg
Barnwell Beaufort Berkeley
Calhoun Charleston Clarendon
Colleton Dorchester Hampton
Jasper Orangeburg




Gale Warning
Issued: 2:30 PM EST Jan. 22, 2017 – National Weather Service

... Gale Warning in effect until 1 am EST Monday...

The National Weather Service in Charleston has issued a Gale
Warning... which is in effect until 1 am EST Monday.

* Winds and seas... south winds 20 to 30 kt with gusts up to 35
kt. Seas 6 to 9 feet.

Precautionary/preparedness actions...

Gale force winds are imminent or occurring. Mariners should alter
plans to avoid these hazardous conditions. Remain in port or seek
safe Harbor.